Time;durP1;ratioP1;P1;durP2;ratioP2;P2;SDS_P1;SDS_P2;PMS_P1;PMS_P2;Temp;Humidity;BMP_temperature;BMP_pressure;BME280_temperature;BME280_humidity;BME280_pressure;Samples;Min_cycle;Max_cycle;Signal;HPM_P1;HPM_P2
2021/03/15 06:43:25;;;;;;;9.73;6.78;;;;;;;;;;4885124;22;20795;-67
2021/03/15 06:45:52;;;;;;;9.45;7.30;;;;;;;;;;4994958;28;20030;-67
2021/03/15 06:48:22;;;;;;;9.40;7.40;;;;;;;;;;4997319;28;20030;-65
2021/03/15 06:50:49;;;;;;;10.60;6.85;;;;;;;;;;4997018;28;20030;-66
2021/03/15 06:53:15;;;;;;;8.85;7.07;;;;;;;;;;4997055;28;20038;-65
2021/03/15 06:55:41;;;;;;;9.60;6.38;;;;;;;;;;4996459;28;20040;-65
2021/03/15 06:58:26;;;;;;;10.95;7.38;;;;;;;;;;4995298;28;20018;-65
2021/03/15 07:01:07;;;;;;;12.20;8.38;;;;;;;;;;4994906;28;20109;-65
2021/03/15 07:06:48;;;;;;;10.30;8.20;;;;;;;;;;4994629;28;20029;-65
2021/03/15 07:09:22;;;;;;;10.80;8.63;;;;;;;;;;4996392;28;20073;-65
2021/03/15 07:12:02;;;;;;;10.35;8.75;;;;;;;;;;4992374;28;20029;-65
2021/03/15 07:14:28;;;;;;;13.02;9.40;;;;;;;;;;4996838;28;20051;-65
2021/03/15 07:16:58;;;;;;;11.85;9.00;;;;;;;;;;4996916;28;20058;-65
2021/03/15 07:19:25;;;;;;;11.30;9.15;;;;;;;;;;4996437;28;20158;-65
2021/03/15 07:21:51;;;;;;;13.63;10.05;;;;;;;;;;4996762;28;20035;-65
2021/03/15 07:24:17;;;;;;;14.05;10.35;;;;;;;;;;4996051;28;20033;-64
2021/03/15 07:26:57;;;;;;;18.08;11.27;;;;;;;;;;4979372;28;20030;-66
2021/03/15 07:29:28;;;;;;;16.50;11.20;;;;;;;;;;4996655;28;20504;-65
2021/03/15 07:31:54;;;;;;;16.05;11.32;;;;;;;;;;4996597;28;20026;-65
2021/03/15 07:34:20;;;;;;;13.90;10.30;;;;;;;;;;4995245;28;20053;-65
2021/03/15 07:36:48;;;;;;;14.23;10.80;;;;;;;;;;4994383;28;20023;-65
2021/03/15 07:39:14;;;;;;;15.80;10.00;;;;;;;;;;4985940;28;20105;-66
2021/03/15 07:41:42;;;;;;;12.68;8.45;;;;;;;;;;4993720;28;20062;-66
2021/03/15 07:44:29;;;;;;;11.30;8.73;;;;;;;;;;4994146;28;20042;-64
2021/03/15 07:47:04;;;;;;;12.02;8.55;;;;;;;;;;4994543;28;20082;-65
2021/03/15 07:49:32;;;;;;;12.65;8.65;;;;;;;;;;4993325;28;20034;-66
2021/03/15 07:52:00;;;;;;;14.60;10.00;;;;;;;;;;4995410;28;20026;-64
2021/03/15 07:54:34;;;;;;;12.98;10.23;;;;;;;;;;4995501;28;20030;-65
2021/03/15 07:57:17;;;;;;;12.68;9.63;;;;;;;;;;4996128;28;20022;-66
2021/03/15 07:59:49;;;;;;;14.23;11.05;;;;;;;;;;4993858;28;20053;-65
2021/03/15 08:02:16;;;;;;;;;;;;;;;;;;4978757;28;20054;-68
2021/03/15 08:04:42;;;;;;;17.27;11.13;;;;;;;;;;4995773;28;19914;-66
2021/03/15 08:07:09;;;;;;;16.80;11.18;;;;;;;;;;4995037;28;20137;-66
2021/03/15 08:09:35;;;;;;;13.93;9.80;;;;;;;;;;4995852;28;20027;-64
2021/03/15 08:12:02;;;;;;;8.93;6.25;;;;;;;;;;4994776;28;20454;-65
2021/03/15 08:14:28;;;;;;;9.07;6.40;;;;;;;;;;4993425;28;20034;-65
2021/03/15 08:16:57;;;;;;;11.63;7.70;;;;;;;;;;4994208;28;20053;-65
2021/03/15 08:19:24;;;;;;;13.30;7.40;;;;;;;;;;4994364;28;20018;-68
2021/03/15 08:21:50;;;;;;;74.82;27.30;;;;;;;;;;4994889;28;20109;-68
2021/03/15 08:24:23;;;;;;;50.90;21.08;;;;;;;;;;4993997;28;20405;-69
2021/03/15 08:26:50;;;;;;;74.90;30.20;;;;;;;;;;4995207;28;20410;-72
2021/03/15 08:29:18;;;;;;;58.90;22.10;;;;;;;;;;4983956;28;20041;-73
2021/03/15 08:31:46;;;;;;;36.60;16.00;;;;;;;;;;4988137;28;20034;-72
2021/03/15 08:34:13;;;;;;;25.50;13.90;;;;;;;;;;4999288;28;20023;-68
2021/03/15 08:36:43;;;;;;;17.85;9.95;;;;;;;;;;4985160;28;20026;-70
2021/03/15 08:39:42;;;;;;;17.58;8.80;;;;;;;;;;5001155;28;20076;-70
2021/03/15 08:42:13;;;;;;;10.73;7.88;;;;;;;;;;4940179;29;20051;-74
2021/03/15 08:44:43;;;;;;;16.10;6.30;;;;;;;;;;4942602;29;20067;-71
2021/03/15 08:47:10;;;;;;;9.35;5.07;;;;;;;;;;4941635;29;20068;-67
2021/03/15 08:49:41;;;;;;;7.45;5.63;;;;;;;;;;4938944;29;20043;-70
2021/03/15 08:52:11;;;;;;;8.00;5.53;;;;;;;;;;4933973;29;20036;-69
2021/03/15 08:54:38;;;;;;;8.10;4.90;;;;;;;;;;4932144;29;20077;-70
2021/03/15 08:57:29;;;;;;;10.23;5.70;;;;;;;;;;4932026;29;20076;-71
2021/03/15 08:59:55;;;;;;;6.68;5.32;;;;;;;;;;4929028;29;20471;-67
2021/03/15 09:02:34;;;;;;;8.32;5.55;;;;;;;;;;4933459;29;20487;-68
2021/03/15 09:05:19;;;;;;;9.05;5.20;;;;;;;;;;4933679;29;20071;-67
2021/03/15 09:07:46;;;;;;;15.57;10.45;;;;;;;;;;4932036;29;20039;-66
2021/03/15 09:10:25;;;;;;;7.13;4.70;;;;;;;;;;4930715;29;20184;-68
2021/03/15 09:13:09;;;;;;;10.13;5.75;;;;;;;;;;4929469;29;20080;-68
2021/03/15 09:15:35;;;;;;;8.80;5.53;;;;;;;;;;4931441;29;20075;-68
2021/03/15 09:18:28;;;;;;;10.32;6.38;;;;;;;;;;4961771;28;20097;-66
2021/03/15 09:21:13;;;;;;;10.73;7.63;;;;;;;;;;4973820;28;20037;-70
2021/03/15 09:23:39;;;;;;;24.83;17.60;;;;;;;;;;4976349;28;20030;-70
2021/03/15 09:26:29;;;;;;;10.43;7.10;;;;;;;;;;4994328;28;20026;-69
2021/03/15 09:29:10;;;;;;;11.02;7.28;;;;;;;;;;4993496;28;20564;-73
2021/03/15 09:32:00;;;;;;;9.40;6.90;;;;;;;;;;4987671;28;20496;-69
2021/03/15 09:34:27;;;;;;;10.68;6.53;;;;;;;;;;4992665;28;20109;-70
2021/03/15 09:36:58;;;;;;;12.38;8.43;;;;;;;;;;4992868;28;20030;-72
2021/03/15 09:39:25;;;;;;;15.95;6.53;;;;;;;;;;4974769;28;20517;-71
2021/03/15 09:41:51;;;;;;;8.80;6.03;;;;;;;;;;4992726;28;20105;-71
2021/03/15 09:44:45;;;;;;;9.63;6.20;;;;;;;;;;4970278;28;20050;-71
2021/03/15 09:47:32;;;;;;;9.38;6.18;;;;;;;;;;4975545;28;20034;-71
2021/03/15 09:49:59;;;;;;;11.48;6.32;;;;;;;;;;4981949;28;20034;-71
2021/03/15 09:52:28;;;;;;;10.43;6.43;;;;;;;;;;4976413;28;20413;-73
2021/03/15 09:54:56;;;;;;;10.15;6.30;;;;;;;;;;4976124;28;20023;-73
2021/03/15 09:57:23;;;;;;;8.13;4.95;;;;;;;;;;4975251;28;20446;-69
2021/03/15 09:59:49;;;;;;;14.00;8.48;;;;;;;;;;4973950;28;20022;-75
2021/03/15 10:02:36;;;;;;;13.57;8.80;;;;;;;;;;4974390;28;20030;-71
2021/03/15 10:05:02;;;;;;;10.35;6.75;;;;;;;;;;4974305;28;20421;-71
2021/03/15 10:07:28;;;;;;;11.10;6.15;;;;;;;;;;4976569;28;20454;-72
2021/03/15 10:09:54;;;;;;;13.30;8.48;;;;;;;;;;4976143;28;20359;-73
2021/03/15 10:12:22;;;;;;;12.85;7.32;;;;;;;;;;4976387;28;20037;-73
2021/03/15 10:14:58;;;;;;;17.05;10.98;;;;;;;;;;4976224;28;20061;-74
2021/03/15 10:17:25;;;;;;;12.93;8.82;;;;;;;;;;4976399;28;20488;-72
2021/03/15 10:19:52;;;;;;;12.18;7.32;;;;;;;;;;4977224;28;20050;-71
2021/03/15 10:22:19;;;;;;;9.38;6.22;;;;;;;;;;4979620;28;20133;-70
2021/03/15 10:24:47;;;;;;;12.80;9.02;;;;;;;;;;4977770;28;20112;-73
2021/03/15 10:27:21;;;;;;;17.65;10.57;;;;;;;;;;4978720;28;20022;-73
2021/03/15 10:29:58;;;;;;;13.07;8.40;;;;;;;;;;4978007;28;20031;-73
2021/03/15 10:32:27;;;;;;;19.58;11.43;;;;;;;;;;4989350;28;20026;-72
2021/03/15 10:34:54;;;;;;;12.15;8.10;;;;;;;;;;4993093;28;20096;-73
2021/03/15 10:37:22;;;;;;;17.10;10.77;;;;;;;;;;4992772;28;20374;-71
2021/03/15 10:39:48;;;;;;;12.07;7.35;;;;;;;;;;4977487;28;20026;-72
2021/03/15 10:42:16;;;;;;;17.63;9.73;;;;;;;;;;4991220;28;20023;-73
2021/03/15 10:44:42;;;;;;;12.88;7.80;;;;;;;;;;4986005;28;20046;-72
2021/03/15 10:47:10;;;;;;;12.95;8.68;;;;;;;;;;4996003;28;20025;-71
2021/03/15 10:49:37;;;;;;;14.18;9.85;;;;;;;;;;4984595;28;20038;-72
2021/03/15 10:52:03;;;;;;;13.57;9.38;;;;;;;;;;4995870;28;20109;-72
2021/03/15 10:54:39;;;;;;;15.48;9.80;;;;;;;;;;4995818;28;20351;-72
2021/03/15 10:57:08;;;;;;;14.10;9.52;;;;;;;;;;4996724;28;20022;-71
2021/03/15 10:59:34;;;;;;;18.38;10.85;;;;;;;;;;4995537;28;20033;-72
2021/03/15 11:02:01;;;;;;;17.38;11.38;;;;;;;;;;4997389;28;20050;-71
2021/03/15 11:04:40;;;;;;;16.40;10.32;;;;;;;;;;4995823;28;20431;-72
2021/03/15 11:07:26;;;;;;;17.42;11.63;;;;;;;;;;4977878;28;20110;-71
2021/03/15 11:09:56;;;;;;;10.93;8.20;;;;;;;;;;4978898;28;20109;-72
2021/03/15 11:12:31;;;;;;;16.48;11.23;;;;;;;;;;4978109;28;20054;-72
2021/03/15 11:15:06;;;;;;;14.98;9.50;;;;;;;;;;4977200;28;20018;-72
2021/03/15 11:17:33;;;;;;;19.13;11.00;;;;;;;;;;4978771;28;20026;-74
2021/03/15 11:19:59;;;;;;;17.58;11.48;;;;;;;;;;4995480;28;20018;-73
2021/03/15 11:22:25;;;;;;;21.27;11.23;;;;;;;;;;4978380;28;20121;-72
2021/03/15 11:25:07;;;;;;;13.40;9.23;;;;;;;;;;4996643;28;20523;-73
2021/03/15 11:27:34;;;;;;;10.93;7.90;;;;;;;;;;4978603;28;20036;-72
2021/03/15 11:30:00;;;;;;;15.35;9.93;;;;;;;;;;4977562;28;20062;-72
2021/03/15 11:32:26;;;;;;;18.48;10.88;;;;;;;;;;4978236;28;20050;-73
2021/03/15 11:34:52;;;;;;;16.30;11.20;;;;;;;;;;4978335;28;20034;-72
2021/03/15 11:37:25;;;;;;;13.52;9.40;;;;;;;;;;4981066;28;20524;-72
2021/03/15 11:39:52;;;;;;;14.93;9.18;;;;;;;;;;4978515;28;20050;-72
2021/03/15 11:42:26;;;;;;;14.77;9.88;;;;;;;;;;4984424;28;20019;-70
2021/03/15 11:44:55;;;;;;;16.27;10.45;;;;;;;;;;4991210;28;20082;-72
2021/03/15 11:47:22;;;;;;;18.58;11.88;;;;;;;;;;4984815;28;20157;-72
2021/03/15 11:49:49;;;;;;;20.40;12.82;;;;;;;;;;4984636;28;20037;-72
2021/03/15 11:52:37;;;;;;;26.35;16.75;;;;;;;;;;4983225;28;20022;-71
2021/03/15 11:55:03;;;;;;;30.63;18.52;;;;;;;;;;4992549;28;20018;-72
2021/03/15 11:57:30;;;;;;;17.50;11.52;;;;;;;;;;4982203;28;20031;-70
2021/03/15 11:59:57;;;;;;;14.85;10.40;;;;;;;;;;4993312;28;20022;-74
2021/03/15 12:02:23;;;;;;;14.43;9.45;;;;;;;;;;4993303;28;20025;-71
2021/03/15 12:04:50;;;;;;;18.10;11.80;;;;;;;;;;4981136;28;20114;-71
2021/03/15 12:07:16;;;;;;;18.58;12.50;;;;;;;;;;4992972;28;21381;-72
2021/03/15 12:09:42;;;;;;;19.92;13.30;;;;;;;;;;4992245;28;20064;-70
2021/03/15 12:12:08;;;;;;;20.42;12.25;;;;;;;;;;4993550;28;20102;-74
2021/03/15 12:14:34;;;;;;;19.52;11.52;;;;;;;;;;4994743;28;20506;-73
2021/03/15 12:17:00;;;;;;;20.05;13.13;;;;;;;;;;4983386;28;20038;-73
2021/03/15 12:19:26;;;;;;;20.38;13.18;;;;;;;;;;4985042;28;20030;-69
2021/03/15 12:21:53;;;;;;;20.83;14.80;;;;;;;;;;4988367;28;20033;-70
2021/03/15 12:24:19;;;;;;;19.08;12.13;;;;;;;;;;4994649;28;20026;-71
2021/03/15 12:26:45;;;;;;;18.70;12.48;;;;;;;;;;4994897;28;20034;-70
2021/03/15 12:29:11;;;;;;;19.48;12.68;;;;;;;;;;4977367;28;20026;-72
2021/03/15 12:31:39;;;;;;;27.75;16.98;;;;;;;;;;4994222;28;20026;-75
2021/03/15 12:34:05;;;;;;;22.15;13.90;;;;;;;;;;4995356;28;20031;-71
2021/03/15 12:36:31;;;;;;;28.33;16.48;;;;;;;;;;4994493;28;20018;-70
2021/03/15 12:38:57;;;;;;;26.77;15.30;;;;;;;;;;4976625;28;20548;-71
2021/03/15 12:41:23;;;;;;;26.02;16.00;;;;;;;;;;4993701;28;20014;-72
2021/03/15 12:43:52;;;;;;;24.85;14.20;;;;;;;;;;4994787;28;20050;-73
2021/03/15 12:46:18;;;;;;;21.60;14.07;;;;;;;;;;5009134;28;20109;-72
2021/03/15 12:48:45;;;;;;;30.20;16.48;;;;;;;;;;4997123;28;20060;-72
2021/03/15 12:51:12;;;;;;;29.33;17.73;;;;;;;;;;4996579;28;20029;-72
2021/03/15 12:53:38;;;;;;;24.88;15.13;;;;;;;;;;4996895;28;20026;-71
2021/03/15 12:56:05;;;;;;;24.85;15.38;;;;;;;;;;5014608;28;20033;-72
2021/03/15 12:58:31;;;;;;;25.42;15.77;;;;;;;;;;4983631;28;20022;-69
2021/03/15 13:00:57;;;;;;;31.10;17.48;;;;;;;;;;4976744;28;20026;-70
2021/03/15 13:03:23;;;;;;;22.75;14.60;;;;;;;;;;4977105;28;20029;-71
2021/03/15 13:05:49;;;;;;;19.13;13.48;;;;;;;;;;4994043;28;20015;-72
2021/03/15 13:08:15;;;;;;;24.98;14.85;;;;;;;;;;4993966;28;20045;-70
2021/03/15 13:10:42;;;;;;;23.33;14.25;;;;;;;;;;4977024;28;20030;-72
2021/03/15 13:13:08;;;;;;;18.45;11.30;;;;;;;;;;4994457;28;20053;-71
2021/03/15 13:15:34;;;;;;;20.33;13.52;;;;;;;;;;4994120;28;20038;-71
2021/03/15 13:18:01;;;;;;;22.13;14.68;;;;;;;;;;4994491;28;20084;-71
2021/03/15 13:20:38;;;;;;;17.63;11.52;;;;;;;;;;4978332;28;20108;-74
2021/03/15 13:23:04;;;;;;;16.45;10.98;;;;;;;;;;4983618;28;20034;-75
2021/03/15 13:25:30;;;;;;;27.77;16.10;;;;;;;;;;4975890;28;20374;-71
2021/03/15 13:27:56;;;;;;;17.40;12.32;;;;;;;;;;4976141;28;20038;-71
2021/03/15 13:30:23;;;;;;;27.40;15.50;;;;;;;;;;4974795;28;20501;-71
2021/03/15 13:32:49;;;;;;;20.30;13.18;;;;;;;;;;4994269;28;20058;-73
2021/03/15 13:35:15;;;;;;;23.40;13.23;;;;;;;;;;4976589;28;20405;-70
2021/03/15 13:37:42;;;;;;;20.13;12.65;;;;;;;;;;4976509;28;20030;-71
2021/03/15 13:40:09;;;;;;;23.95;14.02;;;;;;;;;;4975040;28;20072;-72
2021/03/15 13:42:35;;;;;;;23.65;14.13;;;;;;;;;;4993040;28;20038;-73
2021/03/15 13:45:01;;;;;;;17.90;11.55;;;;;;;;;;4993589;28;20414;-74
2021/03/15 13:47:27;;;;;;;19.08;12.95;;;;;;;;;;4975870;28;20105;-72
2021/03/15 13:49:53;;;;;;;19.20;12.40;;;;;;;;;;4974738;28;20023;-74
2021/03/15 13:52:19;;;;;;;18.02;11.95;;;;;;;;;;4993440;28;20033;-74
2021/03/15 13:54:45;;;;;;;22.80;14.35;;;;;;;;;;4975243;28;20034;-73
2021/03/15 13:57:12;;;;;;;18.92;12.70;;;;;;;;;;4975767;28;20470;-72
2021/03/15 13:59:41;;;;;;;21.48;13.60;;;;;;;;;;4979356;28;20042;-77
2021/03/15 14:02:09;;;;;;;21.92;14.18;;;;;;;;;;4980055;28;20037;-73
2021/03/15 14:04:36;;;;;;;23.15;14.40;;;;;;;;;;4983436;28;20117;-74
2021/03/15 14:07:06;;;;;;;17.70;12.40;;;;;;;;;;4980333;28;20022;-75
2021/03/15 14:09:33;;;;;;;19.02;11.98;;;;;;;;;;4980693;28;20030;-72
2021/03/15 14:11:59;;;;;;;18.95;12.48;;;;;;;;;;4983082;28;20026;-75
2021/03/15 14:14:25;;;;;;;21.15;12.27;;;;;;;;;;4983705;28;20022;-73
2021/03/15 14:16:51;;;;;;;17.20;11.45;;;;;;;;;;4974960;28;20050;-71
2021/03/15 14:19:17;;;;;;;17.35;11.00;;;;;;;;;;4978982;28;20491;-72
2021/03/15 14:21:45;;;;;;;19.13;11.77;;;;;;;;;;4982319;28;20034;-72
2021/03/15 14:24:11;;;;;;;17.85;11.68;;;;;;;;;;4997154;28;20022;-74
2021/03/15 14:26:40;;;;;;;20.63;13.82;;;;;;;;;;4989005;28;20473;-75
2021/03/15 14:29:08;;;;;;;19.70;12.70;;;;;;;;;;4992306;28;20030;-72
2021/03/15 14:31:35;;;;;;;19.10;12.55;;;;;;;;;;4989149;28;20092;-73
2021/03/15 14:34:02;;;;;;;19.10;12.23;;;;;;;;;;4978043;28;20022;-71
2021/03/15 14:36:28;;;;;;;20.50;12.73;;;;;;;;;;4978266;28;20054;-74
2021/03/15 14:39:04;;;;;;;37.97;21.52;;;;;;;;;;4977205;28;20030;-73
2021/03/15 14:41:39;;;;;;;23.38;13.48;;;;;;;;;;4995435;28;20374;-73
2021/03/15 14:44:06;;;;;;;20.38;13.10;;;;;;;;;;4995932;28;20041;-75
2021/03/15 14:46:41;;;;;;;25.02;14.25;;;;;;;;;;4994215;28;20022;-73
2021/03/15 14:49:07;;;;;;;26.73;16.17;;;;;;;;;;4997402;28;20030;-72
2021/03/15 14:51:34;;;;;;;24.70;15.52;;;;;;;;;;4976313;28;20504;-73
2021/03/15 14:54:01;;;;;;;25.30;15.95;;;;;;;;;;4973698;28;20022;-71
2021/03/15 14:56:27;;;;;;;17.73;11.38;;;;;;;;;;4974017;28;20026;-75
2021/03/15 14:58:53;;;;;;;18.98;12.32;;;;;;;;;;4974222;28;20639;-74
2021/03/15 15:01:19;;;;;;;19.60;12.10;;;;;;;;;;4974679;28;20029;-74
2021/03/15 15:03:45;;;;;;;21.40;13.18;;;;;;;;;;4992858;28;20065;-74
2021/03/15 15:06:11;;;;;;;22.20;13.65;;;;;;;;;;4974792;28;20480;-74
2021/03/15 15:08:37;;;;;;;22.55;14.60;;;;;;;;;;4979138;28;20030;-73
2021/03/15 15:11:03;;;;;;;18.50;12.75;;;;;;;;;;4996417;28;20025;-74
2021/03/15 15:13:32;;;;;;;18.40;12.63;;;;;;;;;;4996442;28;20480;-75
2021/03/15 15:16:00;;;;;;;21.92;13.82;;;;;;;;;;4979166;28;20023;-75
2021/03/15 15:18:26;;;;;;;25.90;15.27;;;;;;;;;;4978779;28;20030;-75
2021/03/15 15:20:52;;;;;;;27.90;16.95;;;;;;;;;;4978506;28;20116;-69
2021/03/15 15:23:18;;;;;;;24.90;15.55;;;;;;;;;;4978692;28;20018;-73
2021/03/15 15:25:44;;;;;;;24.35;14.30;;;;;;;;;;4978303;28;20061;-75
2021/03/15 15:28:11;;;;;;;24.58;15.43;;;;;;;;;;4977928;28;20482;-74
2021/03/15 15:30:37;;;;;;;23.52;14.70;;;;;;;;;;4978419;28;20389;-76
2021/03/15 15:33:03;;;;;;;24.48;13.93;;;;;;;;;;4977763;28;20015;-75
2021/03/15 15:35:29;;;;;;;20.38;12.30;;;;;;;;;;4976974;28;20026;-75
2021/03/15 15:37:55;;;;;;;21.20;13.18;;;;;;;;;;4978332;28;20117;-74
2021/03/15 15:40:52;;;;;;;25.73;13.73;;;;;;;;;;4978058;28;20025;-75
2021/03/15 15:43:20;;;;;;;25.33;15.93;;;;;;;;;;4992052;28;20592;-77
2021/03/15 15:45:46;;;;;;;27.50;16.45;;;;;;;;;;4980255;28;20112;-74
2021/03/15 15:48:12;;;;;;;26.00;15.57;;;;;;;;;;4972676;28;20038;-76
2021/03/15 15:50:39;;;;;;;24.95;14.57;;;;;;;;;;4996503;28;20035;-75
2021/03/15 15:53:05;;;;;;;25.63;15.32;;;;;;;;;;4978625;28;20029;-75
2021/03/15 15:55:31;;;;;;;25.20;15.27;;;;;;;;;;4977765;28;20062;-74
2021/03/15 15:57:57;;;;;;;28.63;14.95;;;;;;;;;;4995962;28;20073;-73
2021/03/15 16:00:28;;;;;;;23.98;14.65;;;;;;;;;;4982000;28;20018;-75
2021/03/15 16:02:54;;;;;;;25.20;14.90;;;;;;;;;;4981624;28;20528;-75
2021/03/15 16:05:20;;;;;;;21.77;13.85;;;;;;;;;;4996020;28;20019;-76
2021/03/15 16:07:47;;;;;;;21.10;13.35;;;;;;;;;;4976649;28;20038;-77
2021/03/15 16:10:17;;;;;;;17.30;11.68;;;;;;;;;;4983492;28;20106;-72
2021/03/15 16:12:46;;;;;;;15.18;9.88;;;;;;;;;;4976640;28;20083;-74
2021/03/15 16:15:35;;;;;;;20.00;11.68;;;;;;;;;;4976893;28;20054;-71
2021/03/15 16:18:06;;;;;;;18.63;11.57;;;;;;;;;;4976223;28;20481;-73
2021/03/15 16:20:32;;;;;;;21.27;13.32;;;;;;;;;;4977421;28;20118;-73
2021/03/15 16:22:58;;;;;;;23.48;14.35;;;;;;;;;;4977091;28;20022;-74
2021/03/15 16:25:25;;;;;;;21.98;13.65;;;;;;;;;;4976425;28;20030;-70
2021/03/15 16:28:01;;;;;;;21.20;13.50;;;;;;;;;;4976841;28;20042;-69
2021/03/15 16:30:32;;;;;;;25.20;15.45;;;;;;;;;;4993629;28;20033;-72
2021/03/15 16:32:59;;;;;;;23.40;15.30;;;;;;;;;;4977182;28;20040;-72
2021/03/15 16:35:25;;;;;;;21.77;13.77;;;;;;;;;;4977553;28;20072;-70
2021/03/15 16:37:51;;;;;;;24.30;14.02;;;;;;;;;;4977004;28;20061;-72
2021/03/15 16:40:19;;;;;;;26.95;15.90;;;;;;;;;;4993349;28;20462;-69
2021/03/15 16:42:45;;;;;;;24.63;16.13;;;;;;;;;;4993602;28;20096;-71
2021/03/15 16:45:11;;;;;;;26.92;15.10;;;;;;;;;;4975809;28;20060;-71
2021/03/15 16:47:37;;;;;;;23.35;14.93;;;;;;;;;;4975898;28;20030;-69
2021/03/15 16:50:06;;;;;;;21.85;13.32;;;;;;;;;;4994860;28;20454;-68
2021/03/15 16:52:32;;;;;;;29.20;17.27;;;;;;;;;;4976754;28;20045;-68
2021/03/15 16:54:59;;;;;;;32.00;18.98;;;;;;;;;;4994424;28;20034;-68
2021/03/15 16:57:25;;;;;;;34.78;21.40;;;;;;;;;;4977255;28;20128;-70
2021/03/15 16:59:51;;;;;;;34.78;20.45;;;;;;;;;;4976281;28;20026;-70
2021/03/15 17:02:18;;;;;;;34.40;20.80;;;;;;;;;;4976435;28;20121;-72
2021/03/15 17:04:44;;;;;;;33.10;20.40;;;;;;;;;;4993894;28;20033;-70
2021/03/15 17:07:10;;;;;;;34.13;19.42;;;;;;;;;;4976902;28;20029;-69
2021/03/15 17:09:36;;;;;;;34.55;20.48;;;;;;;;;;4993870;28;20208;-70
2021/03/15 17:12:02;;;;;;;50.17;26.67;;;;;;;;;;4976461;28;20046;-71
2021/03/15 17:14:37;;;;;;;40.92;22.42;;;;;;;;;;4976525;28;20077;-73
2021/03/15 17:17:04;;;;;;;28.48;16.60;;;;;;;;;;4991032;28;20121;-72
2021/03/15 17:19:30;;;;;;;24.30;15.93;;;;;;;;;;4976055;28;20074;-72
2021/03/15 17:21:56;;;;;;;24.88;15.00;;;;;;;;;;4976463;28;20113;-72
2021/03/15 17:24:22;;;;;;;23.88;15.77;;;;;;;;;;4975894;28;20775;-69
2021/03/15 17:26:48;;;;;;;20.20;13.07;;;;;;;;;;4975746;28;20472;-75
2021/03/15 17:29:14;;;;;;;24.27;14.10;;;;;;;;;;4975914;28;20034;-74
2021/03/15 17:31:40;;;;;;;28.52;17.15;;;;;;;;;;4976211;28;20026;-72
2021/03/15 17:34:07;;;;;;;23.98;14.25;;;;;;;;;;4988005;28;20630;-72
2021/03/15 17:36:33;;;;;;;21.38;12.90;;;;;;;;;;4976445;28;20029;-72
2021/03/15 17:38:59;;;;;;;21.80;13.40;;;;;;;;;;4975985;28;20058;-72
2021/03/15 17:41:25;;;;;;;21.90;14.68;;;;;;;;;;4973663;28;20431;-74
2021/03/15 17:43:51;;;;;;;25.27;14.48;;;;;;;;;;4993494;28;20189;-72
2021/03/15 17:46:17;;;;;;;22.85;13.93;;;;;;;;;;4993082;28;20029;-72
2021/03/15 17:48:44;;;;;;;26.55;15.15;;;;;;;;;;4974778;28;20076;-72
2021/03/15 17:51:11;;;;;;;20.60;12.65;;;;;;;;;;4993411;28;20405;-73
2021/03/15 17:53:39;;;;;;;19.85;12.57;;;;;;;;;;4976341;28;20034;-71
2021/03/15 17:56:09;;;;;;;19.60;12.13;;;;;;;;;;4990168;28;20023;-71
2021/03/15 17:58:35;;;;;;;21.38;12.10;;;;;;;;;;4984138;28;20050;-72
2021/03/15 18:01:01;;;;;;;15.75;10.45;;;;;;;;;;4981087;28;20461;-71
2021/03/15 18:03:27;;;;;;;17.45;11.15;;;;;;;;;;4994000;28;20046;-71
2021/03/15 18:05:53;;;;;;;20.35;12.23;;;;;;;;;;4976650;28;20026;-71
2021/03/15 18:08:19;;;;;;;17.98;11.90;;;;;;;;;;4975224;28;20114;-72
2021/03/15 18:10:46;;;;;;;19.50;11.57;;;;;;;;;;4976356;28;20572;-72
2021/03/15 18:13:12;;;;;;;19.50;12.90;;;;;;;;;;4992531;28;20465;-71
2021/03/15 18:15:39;;;;;;;20.77;12.73;;;;;;;;;;4974834;28;20027;-71
2021/03/15 18:18:05;;;;;;;19.90;12.20;;;;;;;;;;4993873;28;20084;-72
2021/03/15 18:20:32;;;;;;;19.48;12.45;;;;;;;;;;4975735;28;20110;-71
2021/03/15 18:22:58;;;;;;;23.15;13.73;;;;;;;;;;4975533;28;20105;-72
2021/03/15 18:25:25;;;;;;;24.65;14.95;;;;;;;;;;4976323;28;20473;-72
2021/03/15 18:27:54;;;;;;;23.52;14.88;;;;;;;;;;4975126;28;20432;-71
2021/03/15 18:30:21;;;;;;;23.00;14.30;;;;;;;;;;4975654;28;20031;-71
2021/03/15 18:32:47;;;;;;;21.77;14.20;;;;;;;;;;4993436;28;20022;-72
2021/03/15 18:35:14;;;;;;;27.00;14.77;;;;;;;;;;4974911;28;20018;-72
2021/03/15 18:37:40;;;;;;;30.92;16.10;;;;;;;;;;4975506;28;20442;-72
2021/03/15 18:40:07;;;;;;;26.63;15.50;;;;;;;;;;4975527;28;20018;-73
2021/03/15 18:42:33;;;;;;;24.00;14.82;;;;;;;;;;4978993;28;20026;-73
2021/03/15 18:45:00;;;;;;;24.98;15.52;;;;;;;;;;4979260;28;20043;-71
2021/03/15 18:47:28;;;;;;;25.65;15.73;;;;;;;;;;4979507;28;20390;-70
2021/03/15 18:49:54;;;;;;;27.73;16.42;;;;;;;;;;4979023;28;20097;-71
2021/03/15 18:52:20;;;;;;;27.90;17.65;;;;;;;;;;5003636;28;20029;-73
2021/03/15 18:54:48;;;;;;;27.80;17.45;;;;;;;;;;4979606;28;20041;-71
2021/03/15 18:57:14;;;;;;;28.50;17.77;;;;;;;;;;4978151;28;20030;-73
2021/03/15 18:59:40;;;;;;;32.95;18.80;;;;;;;;;;4978458;28;20077;-71
2021/03/15 19:02:10;;;;;;;34.15;19.33;;;;;;;;;;4983202;28;20037;-72
2021/03/15 19:04:37;;;;;;;32.30;18.25;;;;;;;;;;4985908;28;20026;-71
2021/03/15 19:07:03;;;;;;;30.45;17.88;;;;;;;;;;4984653;28;20027;-73
2021/03/15 19:09:30;;;;;;;32.53;18.25;;;;;;;;;;4997877;28;20125;-70
2021/03/15 19:12:05;;;;;;;30.17;18.65;;;;;;;;;;4983686;28;20023;-72
2021/03/15 19:14:32;;;;;;;32.25;18.98;;;;;;;;;;4977030;28;20046;-70
2021/03/15 19:16:58;;;;;;;28.90;19.13;;;;;;;;;;5001546;28;20018;-70
2021/03/15 19:19:24;;;;;;;30.98;18.58;;;;;;;;;;4986456;28;20080;-72
2021/03/15 19:21:50;;;;;;;27.45;17.63;;;;;;;;;;4977946;28;20121;-73
2021/03/15 19:24:17;;;;;;;26.33;16.85;;;;;;;;;;4977362;28;20118;-70
2021/03/15 19:26:43;;;;;;;29.95;17.70;;;;;;;;;;4977677;28;20019;-71
2021/03/15 19:29:09;;;;;;;27.50;16.92;;;;;;;;;;4977087;28;20496;-71
2021/03/15 19:31:39;;;;;;;29.05;17.52;;;;;;;;;;4993378;28;20042;-73
2021/03/15 19:34:05;;;;;;;24.85;16.40;;;;;;;;;;4982344;28;20791;-70
2021/03/15 19:36:31;;;;;;;23.63;15.65;;;;;;;;;;4981363;28;20057;-71
2021/03/15 19:39:00;;;;;;;27.42;16.05;;;;;;;;;;4997222;28;20481;-73
2021/03/15 19:41:28;;;;;;;25.10;15.82;;;;;;;;;;4985246;28;20501;-72
2021/03/15 19:43:55;;;;;;;22.95;14.63;;;;;;;;;;4980028;28;20040;-72
2021/03/15 19:46:26;;;;;;;25.67;15.10;;;;;;;;;;4979889;28;20109;-73
2021/03/15 19:48:52;;;;;;;24.25;14.13;;;;;;;;;;4999495;28;20026;-69
2021/03/15 19:51:18;;;;;;;19.63;12.60;;;;;;;;;;4995358;28;20037;-72
2021/03/15 19:53:44;;;;;;;20.20;13.13;;;;;;;;;;4981071;28;20026;-71
2021/03/15 19:56:10;;;;;;;21.23;13.70;;;;;;;;;;4983554;28;20030;-72
2021/03/15 19:58:42;;;;;;;17.75;12.98;;;;;;;;;;4996760;28;20038;-74
2021/03/15 20:01:09;;;;;;;23.15;13.40;;;;;;;;;;4987730;28;20108;-72
2021/03/15 20:03:35;;;;;;;20.08;13.10;;;;;;;;;;4983296;28;20034;-72
2021/03/15 20:06:01;;;;;;;21.20;12.43;;;;;;;;;;4983459;28;20064;-72
2021/03/15 20:08:27;;;;;;;19.80;12.57;;;;;;;;;;4981983;28;20022;-70
2021/03/15 20:10:53;;;;;;;21.73;13.60;;;;;;;;;;4982033;28;20061;-71
2021/03/15 20:13:20;;;;;;;21.45;12.80;;;;;;;;;;5003651;28;20027;-72
2021/03/15 20:15:49;;;;;;;21.25;13.10;;;;;;;;;;4981325;28;20437;-73
2021/03/15 20:18:15;;;;;;;20.35;13.15;;;;;;;;;;4982144;28;20049;-74
2021/03/15 20:20:42;;;;;;;22.45;13.32;;;;;;;;;;4982716;28;20062;-73
2021/03/15 20:23:26;;;;;;;20.33;12.38;;;;;;;;;;4985793;28;20473;-71
2021/03/15 20:25:52;;;;;;;19.23;12.50;;;;;;;;;;4987867;28;20034;-72
2021/03/15 20:28:18;;;;;;;19.67;12.10;;;;;;;;;;4976760;28;20181;-73
2021/03/15 20:30:45;;;;;;;21.80;12.80;;;;;;;;;;4995723;28;20034;-74
2021/03/15 20:33:12;;;;;;;21.42;12.80;;;;;;;;;;4975671;28;20023;-72
2021/03/15 20:35:39;;;;;;;22.38;13.20;;;;;;;;;;4976089;28;20049;-72
2021/03/15 20:38:07;;;;;;;21.35;12.98;;;;;;;;;;4993841;28;20023;-74
2021/03/15 20:40:34;;;;;;;23.65;13.50;;;;;;;;;;4989723;28;20066;-73
2021/03/15 20:43:01;;;;;;;23.52;14.00;;;;;;;;;;4975480;28;20026;-71
2021/03/15 20:45:46;;;;;;;19.75;12.73;;;;;;;;;;5076093;23;20043;-73
2021/03/15 20:48:12;;;;;;;23.77;13.30;;;;;;;;;;4962891;28;20090;-71
2021/03/15 20:50:38;;;;;;;19.75;12.10;;;;;;;;;;4965821;28;20054;-69
2021/03/15 20:53:05;;;;;;;22.92;13.63;;;;;;;;;;4963918;28;20046;-71
2021/03/15 20:55:32;;;;;;;19.50;12.10;;;;;;;;;;4974273;28;20129;-69
2021/03/15 20:57:58;;;;;;;22.88;13.25;;;;;;;;;;4973835;28;20462;-70
2021/03/15 21:00:25;;;;;;;21.33;12.77;;;;;;;;;;4966777;28;20021;-72
2021/03/15 21:02:52;;;;;;;21.52;13.05;;;;;;;;;;4963929;28;20019;-71
2021/03/15 21:05:19;;;;;;;22.42;13.25;;;;;;;;;;4958675;28;20035;-71
2021/03/15 21:07:45;;;;;;;20.85;13.18;;;;;;;;;;4953869;29;20062;-70
2021/03/15 21:10:15;;;;;;;22.67;14.00;;;;;;;;;;4955114;28;20027;-70
2021/03/15 21:12:42;;;;;;;20.20;12.43;;;;;;;;;;4955016;28;20044;-69
2021/03/15 21:15:10;;;;;;;23.77;13.98;;;;;;;;;;4961572;28;20042;-72